Climatologie pour Saint-Brevin les Pins
Jour • Résumé pour mai 20, 2017 Système :  Métrique    Anglais   Mixte
« - 1 jour
+ 1 jour »
Jour Semaine Mois Année Personnalisé
  Maximum : Minimum : Moyenne :
Température sous abri : 17.6 °C 8.6 °C 13.3 °C
Point de rosée : 12.1 °C 7.9 °C 9.9 °C
Humidité : 97 % 66 % 81 %
Vitesse du vent : 20.9 km/h 0.0 km/h 5.4 km/h
Rafale : 27.4 km/h - -
Direction :- - West
Pression : 1024.9 hPa 1018.2 hPa -
Précipitations : 0.3 mm    
Historical Graphs
 
 
Tableau de données pour mai 20, 2017
Heure Tempé Pt rosée Pression Vent Vitesse Rafale Humidité Taux pluie (/hr) Soleil
00:00 11.8 °C 9.3 °C 1018.2 hPa WNW 14.5 km/h 16.1 km/h 85 % 0.0 mm 0 W/m2
00:10 11.8 °C 9.2 °C 1018.2 hPa WNW 12.9 km/h 16.1 km/h 84 % 0.0 mm 0 W/m2
00:15 11.9 °C 9.1 °C 1018.2 hPa WNW 4.8 km/h 17.7 km/h 83 % 0.0 mm 0 W/m2
00:20 12.0 °C 9.2 °C 1018.2 hPa West 4.8 km/h 17.7 km/h 83 % 0.0 mm 0 W/m2
00:25 12.0 °C 9.2 °C 1018.2 hPa West 9.7 km/h 19.3 km/h 83 % 0.0 mm 0 W/m2
00:30 11.9 °C 9.1 °C 1018.2 hPa West 8.0 km/h 19.3 km/h 83 % 0.0 mm 0 W/m2
00:35 11.9 °C 9.1 °C 1018.2 hPa NW 12.9 km/h 17.7 km/h 83 % 0.0 mm 0 W/m2
00:40 11.9 °C 8.9 °C 1018.2 hPa WNW 6.4 km/h 19.3 km/h 82 % 0.0 mm 0 W/m2
00:45 11.9 °C 8.9 °C 1018.2 hPa WNW 9.7 km/h 19.3 km/h 82 % 0.0 mm 0 W/m2
00:50 11.8 °C 8.8 °C 1018.2 hPa West 3.2 km/h 19.3 km/h 82 % 0.0 mm 0 W/m2
00:55 11.7 °C 8.9 °C 1018.2 hPa WNW 3.2 km/h 16.1 km/h 83 % 0.0 mm 0 W/m2
01:00 11.8 °C 9.0 °C 1018.2 hPa WNW 8.0 km/h 19.3 km/h 83 % 0.0 mm 0 W/m2
01:05 11.8 °C 8.8 °C 1018.2 hPa WNW 4.8 km/h 19.3 km/h 82 % 0.0 mm 0 W/m2
01:10 11.6 °C 8.6 °C 1018.2 hPa West 6.4 km/h 16.1 km/h 82 % 0.0 mm 0 W/m2
01:15 11.3 °C 8.0 °C 1018.2 hPa WNW 3.2 km/h 11.3 km/h 80 % 0.0 mm 0 W/m2
01:20 11.3 °C 8.1 °C 1018.2 hPa Calm   12.9 km/h 81 % 0.0 mm 0 W/m2
01:25 11.1 °C 8.3 °C 1018.2 hPa WNW 6.4 km/h 12.9 km/h 83 % 0.0 mm 0 W/m2
01:30 10.9 °C 8.3 °C 1018.2 hPa Calm   12.9 km/h 84 % 0.0 mm 0 W/m2
01:35 10.7 °C 8.4 °C 1018.2 hPa WNW 8.0 km/h 9.7 km/h 86 % 0.0 mm 0 W/m2
01:40 10.7 °C 8.4 °C 1018.5 hPa WNW 9.7 km/h 12.9 km/h 86 % 0.0 mm 0 W/m2
01:45 10.6 °C 8.5 °C 1018.2 hPa WNW 1.6 km/h 12.9 km/h 87 % 0.0 mm 0 W/m2
01:50 10.8 °C 8.7 °C 1018.2 hPa WNW 8.0 km/h 14.5 km/h 87 % 0.0 mm 0 W/m2
01:55 10.9 °C 8.8 °C 1018.2 hPa West 3.2 km/h 14.5 km/h 87 % 0.0 mm 0 W/m2
02:00 10.8 °C 8.8 °C 1018.5 hPa WNW 6.4 km/h 14.5 km/h 87 % 0.0 mm 0 W/m2
02:05 11.1 °C 9.1 °C 1018.5 hPa Calm   14.5 km/h 88 % 0.0 mm 0 W/m2
02:10 11.2 °C 9.1 °C 1018.5 hPa WNW 4.8 km/h 14.5 km/h 87 % 0.0 mm 0 W/m2
02:15 11.2 °C 9.1 °C 1018.5 hPa WNW 1.6 km/h 9.7 km/h 87 % 0.0 mm 0 W/m2
02:20 11.1 °C 9.2 °C 1018.5 hPa WNW 4.8 km/h 11.3 km/h 88 % 0.0 mm 0 W/m2
02:25 11.2 °C 9.3 °C 1018.5 hPa Calm   14.5 km/h 88 % 0.0 mm 0 W/m2
02:30 11.2 °C 9.3 °C 1018.5 hPa WNW 8.0 km/h 14.5 km/h 88 % 0.0 mm 0 W/m2
02:35 11.2 °C 9.1 °C 1018.5 hPa West 4.8 km/h 12.9 km/h 87 % 0.0 mm 0 W/m2
02:40 11.1 °C 9.0 °C 1018.5 hPa WNW 3.2 km/h 12.9 km/h 87 % 0.0 mm 0 W/m2
02:45 11.0 °C 8.9 °C 1018.5 hPa WNW 4.8 km/h 12.9 km/h 87 % 0.0 mm 0 W/m2
02:50 11.1 °C 9.0 °C 1018.2 hPa West 3.2 km/h 9.7 km/h 87 % 0.0 mm 0 W/m2
02:55 11.0 °C 9.1 °C 1018.5 hPa WNW 1.6 km/h 9.7 km/h 88 % 0.0 mm 0 W/m2
03:00 11.0 °C 8.9 °C 1018.2 hPa Calm   9.7 km/h 87 % 0.0 mm 0 W/m2
03:05 10.9 °C 8.9 °C 1018.5 hPa Calm   9.7 km/h 87 % 0.0 mm 0 W/m2
03:10 10.5 °C 8.6 °C 1018.2 hPa Calm   9.7 km/h 88 % 0.0 mm 0 W/m2
03:15 10.2 °C 8.5 °C 1018.2 hPa WNW 3.2 km/h 6.4 km/h 89 % 0.0 mm 0 W/m2
03:20 10.0 °C 8.4 °C 1018.2 hPa WNW 1.6 km/h 11.3 km/h 90 % 0.0 mm 0 W/m2
03:25 9.9 °C 8.5 °C 1018.2 hPa Calm   11.3 km/h 91 % 0.0 mm 0 W/m2
03:30 9.9 °C 8.5 °C 1018.2 hPa WNW 1.6 km/h 8.0 km/h 91 % 0.0 mm 0 W/m2
03:35 9.9 °C 8.5 °C 1018.2 hPa WNW 3.2 km/h 8.0 km/h 91 % 0.0 mm 0 W/m2
03:40 9.9 °C 8.5 °C 1018.2 hPa Calm   6.4 km/h 91 % 0.0 mm 0 W/m2
03:45 9.9 °C 8.7 °C 1018.5 hPa Calm   4.8 km/h 92 % 0.0 mm 0 W/m2
03:50 9.9 °C 8.7 °C 1018.2 hPa Calm   6.4 km/h 92 % 0.0 mm 0 W/m2
03:55 10.0 °C 8.9 °C 1018.2 hPa WNW 4.8 km/h 8.0 km/h 93 % 0.0 mm 0 W/m2
04:00 10.1 °C 8.8 °C 1018.2 hPa WNW 4.8 km/h 8.0 km/h 92 % 0.0 mm 0 W/m2
04:05 10.1 °C 8.8 °C 1018.2 hPa Calm   4.8 km/h 92 % 0.0 mm 0 W/m2
04:10 10.2 °C 8.9 °C 1018.2 hPa NW 12.9 km/h 17.7 km/h 92 % 0.0 mm 0 W/m2
04:15 10.3 °C 8.9 °C 1018.2 hPa NW 3.2 km/h 17.7 km/h 91 % 0.0 mm 0 W/m2
04:20 10.3 °C 8.6 °C 1018.5 hPa NW 3.2 km/h 16.1 km/h 89 % 0.0 mm 0 W/m2
04:25 10.1 °C 8.4 °C 1018.5 hPa Calm   9.7 km/h 89 % 0.0 mm 0 W/m2
04:30 10.0 °C 8.4 °C 1018.5 hPa Calm   12.9 km/h 90 % 0.0 mm 0 W/m2
04:35 9.9 °C 8.4 °C 1018.5 hPa Calm   12.9 km/h 90 % 0.0 mm 0 W/m2
04:40 9.9 °C 8.5 °C 1018.5 hPa Calm   6.4 km/h 91 % 0.0 mm 0 W/m2
04:45 9.8 °C 8.4 °C 1018.5 hPa Calm   4.8 km/h 91 % 0.0 mm 0 W/m2
04:50 9.7 °C 8.3 °C 1018.5 hPa Calm   4.8 km/h 91 % 0.0 mm 0 W/m2
04:55 9.7 °C 8.5 °C 1018.5 hPa Calm   1.6 km/h 92 % 0.0 mm 0 W/m2
05:00 9.8 °C 8.5 °C 1018.5 hPa Calm   1.6 km/h 92 % 0.0 mm 0 W/m2
05:05 9.8 °C 8.5 °C 1018.5 hPa Calm     92 % 0.0 mm 0 W/m2
05:10 9.8 °C 8.8 °C 1018.5 hPa Calm     93 % 0.0 mm 0 W/m2
05:20 10.0 °C 8.9 °C 1018.5 hPa NW 1.6 km/h 14.5 km/h 93 % 0.3 mm 0 W/m2
05:25 9.9 °C 8.9 °C 1018.5 hPa Calm   14.5 km/h 93 % 0.3 mm 0 W/m2
05:30 9.8 °C 8.8 °C 1018.5 hPa Calm   4.8 km/h 93 % 0.3 mm 0 W/m2
05:35 9.7 °C 8.8 °C 1018.5 hPa Calm   4.8 km/h 94 % 0.3 mm 0 W/m2
05:40 9.7 °C 8.7 °C 1018.5 hPa Calm   1.6 km/h 94 % 0.3 mm 0 W/m2
05:45 9.7 °C 8.8 °C 1018.5 hPa Calm     94 % 0.3 mm 0 W/m2
05:50 9.7 °C 8.7 °C 1018.5 hPa Calm     94 % 0.3 mm 0 W/m2
05:55 9.6 °C 8.6 °C 1018.5 hPa Calm     94 % 0.3 mm 0 W/m2
06:00 9.4 °C 8.7 °C 1018.5 hPa Calm     95 % 0.3 mm 0 W/m2
06:05 9.3 °C 8.6 °C 1018.5 hPa Calm     95 % 0.3 mm 0 W/m2
06:10 9.4 °C 8.6 °C 1018.5 hPa Calm   1.6 km/h 95 % 0.0 mm 0 W/m2
06:15 9.3 °C 8.6 °C 1018.5 hPa Calm   1.6 km/h 95 % 0.0 mm 0 W/m2
06:20 9.3 °C 8.5 °C 1018.5 hPa Calm     95 % 0.0 mm 0 W/m2
06:25 9.2 °C 8.4 °C 1018.5 hPa NW 1.6 km/h 1.6 km/h 95 % 0.0 mm 0 W/m2
06:30 9.2 °C 8.6 °C 1018.5 hPa Calm   1.6 km/h 96 % 0.0 mm 0 W/m2
06:35 9.0 °C 8.2 °C 1018.5 hPa Calm   3.2 km/h 95 % 0.0 mm 5 W/m2
06:40 8.8 °C 8.1 °C 1018.8 hPa Calm   3.2 km/h 95 % 0.0 mm 7 W/m2
06:45 8.8 °C 8.0 °C 1018.8 hPa Calm   3.2 km/h 95 % 0.0 mm 9 W/m2
06:50 8.7 °C 7.9 °C 1018.8 hPa Calm   3.2 km/h 95 % 0.0 mm 11 W/m2
06:55 8.7 °C 8.1 °C 1018.8 hPa Calm     96 % 0.0 mm 14 W/m2
07:00 8.6 °C 8.0 °C 1019.2 hPa Calm     96 % 0.0 mm 18 W/m2
07:05 8.6 °C 8.0 °C 1019.2 hPa Calm   1.6 km/h 96 % 0.0 mm 23 W/m2
07:10 8.6 °C 8.0 °C 1019.2 hPa Calm   1.6 km/h 96 % 0.0 mm 25 W/m2
07:15 8.6 °C 8.0 °C 1019.2 hPa Calm     96 % 0.0 mm 25 W/m2
07:20 8.6 °C 8.0 °C 1019.5 hPa Calm     96 % 0.0 mm 32 W/m2
07:25 8.7 °C 8.1 °C 1019.5 hPa Calm     96 % 0.0 mm 32 W/m2
07:30 8.7 °C 8.1 °C 1019.5 hPa Calm     96 % 0.0 mm 32 W/m2
07:35 8.8 °C 8.2 °C 1019.5 hPa Calm     96 % 0.0 mm 28 W/m2
07:40 8.9 °C 8.3 °C 1019.5 hPa Calm     96 % 0.0 mm 33 W/m2
07:45 9.0 °C 8.5 °C 1019.5 hPa Calm     97 % 0.0 mm 35 W/m2
07:55 9.7 °C 9.3 °C 1019.9 hPa Calm     97 % 0.0 mm 69 W/m2
08:05 10.6 °C 10.2 °C 1019.9 hPa Calm     97 % 0.0 mm 181 W/m2
08:10 11.2 °C 10.6 °C 1019.9 hPa Calm     96 % 0.0 mm 258 W/m2
08:15 11.7 °C 10.9 °C 1019.9 hPa WNW 1.6 km/h 4.8 km/h 95 % 0.0 mm 70 W/m2
08:20 11.6 °C 10.6 °C 1019.9 hPa Calm   6.4 km/h 94 % 0.0 mm 97 W/m2
08:25 11.7 °C 10.7 °C 1019.9 hPa WNW 3.2 km/h 8.0 km/h 94 % 0.0 mm 151 W/m2
08:30 11.7 °C 10.6 °C 1019.9 hPa Calm   8.0 km/h 93 % 0.0 mm 167 W/m2
08:35 11.9 °C 10.5 °C 1019.9 hPa Calm   4.8 km/h 91 % 0.0 mm 141 W/m2
08:40 12.2 °C 10.6 °C 1020.2 hPa Calm   4.8 km/h 90 % 0.0 mm 132 W/m2
08:45 12.3 °C 10.7 °C 1020.2 hPa Calm   4.8 km/h 90 % 0.0 mm 141 W/m2
08:50 12.4 °C 10.8 °C 1020.2 hPa Calm   4.8 km/h 90 % 0.0 mm 179 W/m2
08:55 12.5 °C 10.9 °C 1020.2 hPa Calm   4.8 km/h 90 % 0.0 mm 285 W/m2
09:00 12.7 °C 10.7 °C 1020.5 hPa Calm   3.2 km/h 88 % 0.0 mm 153 W/m2
09:05 12.5 °C 10.4 °C 1020.5 hPa West 3.2 km/h 6.4 km/h 87 % 0.0 mm 132 W/m2
09:10 12.6 °C 10.6 °C 1020.5 hPa Calm   6.4 km/h 88 % 0.0 mm 160 W/m2
09:15 13.0 °C 10.7 °C 1020.5 hPa West 3.2 km/h 4.8 km/h 86 % 0.0 mm 457 W/m2
09:20 13.6 °C 11.1 °C 1020.5 hPa WNW 1.6 km/h 6.4 km/h 85 % 0.0 mm 468 W/m2
09:25 13.4 °C 10.6 °C 1020.5 hPa WNW 3.2 km/h 9.7 km/h 83 % 0.0 mm 322 W/m2
09:30 13.3 °C 10.3 °C 1020.5 hPa West 4.8 km/h 9.7 km/h 82 % 0.0 mm 494 W/m2
09:35 13.4 °C 10.2 °C 1020.5 hPa Calm   8.0 km/h 81 % 0.0 mm 513 W/m2
09:40 14.0 °C 11.0 °C 1020.9 hPa West 8.0 km/h 9.7 km/h 82 % 0.0 mm 524 W/m2
09:45 13.9 °C 10.5 °C 1020.9 hPa SW 4.8 km/h 9.7 km/h 80 % 0.0 mm 232 W/m2
09:50 14.1 °C 10.5 °C 1020.9 hPa WSW 1.6 km/h 9.7 km/h 79 % 0.0 mm 533 W/m2
09:55 14.0 °C 10.2 °C 1020.9 hPa West 6.4 km/h 11.3 km/h 78 % 0.0 mm 545 W/m2
10:00 13.9 °C 10.4 °C 1020.9 hPa WSW 3.2 km/h 11.3 km/h 79 % 0.0 mm 563 W/m2
10:05 14.5 °C 11.3 °C 1021.2 hPa West 6.4 km/h 12.9 km/h 81 % 0.0 mm 573 W/m2
10:10 14.3 °C 10.4 °C 1021.2 hPa WSW 6.4 km/h 14.5 km/h 77 % 0.0 mm 582 W/m2
10:15 14.4 °C 10.6 °C 1021.2 hPa West 6.4 km/h 14.5 km/h 78 % 0.0 mm 594 W/m2
10:20 14.4 °C 10.6 °C 1021.2 hPa WSW 9.7 km/h 14.5 km/h 78 % 0.0 mm 606 W/m2
10:30 14.5 °C 10.5 °C 1021.6 hPa South 1.6 km/h 14.5 km/h 77 % 0.0 mm 633 W/m2
10:35 15.0 °C 10.8 °C 1021.6 hPa West 4.8 km/h 14.5 km/h 76 % 0.0 mm 652 W/m2
10:40 14.9 °C 10.9 °C 1021.6 hPa NW 4.8 km/h 16.1 km/h 77 % 0.0 mm 666 W/m2
10:45 15.1 °C 10.5 °C 1021.6 hPa WSW 6.4 km/h 17.7 km/h 74 % 0.0 mm 689 W/m2
10:50 15.2 °C 10.6 °C 1021.6 hPa SW 12.9 km/h 17.7 km/h 74 % 0.0 mm 689 W/m2
10:55 15.4 °C 11.4 °C 1021.6 hPa WSW 14.5 km/h 16.1 km/h 77 % 0.0 mm 696 W/m2
11:00 14.9 °C 9.7 °C 1021.6 hPa WSW 6.4 km/h 16.1 km/h 71 % 0.0 mm 707 W/m2
11:05 15.1 °C 10.3 °C 1021.6 hPa West 11.3 km/h 16.1 km/h 73 % 0.0 mm 719 W/m2
11:10 15.6 °C 10.5 °C 1021.6 hPa West 11.3 km/h 16.1 km/h 72 % 0.0 mm 731 W/m2
11:15 15.4 °C 10.2 °C 1021.6 hPa WSW 11.3 km/h 16.1 km/h 71 % 0.0 mm 742 W/m2
11:20 15.5 °C 10.7 °C 1021.9 hPa West 14.5 km/h 19.3 km/h 73 % 0.0 mm 765 W/m2
11:25 15.7 °C 11.0 °C 1021.9 hPa West 12.9 km/h 19.3 km/h 74 % 0.0 mm 772 W/m2
11:35 15.7 °C 10.6 °C 1021.9 hPa SW 8.0 km/h 20.9 km/h 72 % 0.0 mm 868 W/m2
11:40 15.9 °C 11.3 °C 1021.9 hPa SW 4.8 km/h 20.9 km/h 74 % 0.0 mm 993 W/m2
11:45 15.8 °C 10.5 °C 1021.9 hPa SW 4.8 km/h 20.9 km/h 71 % 0.0 mm 332 W/m2
11:50 15.2 °C 10.4 °C 1021.9 hPa NNW 1.6 km/h 20.9 km/h 73 % 0.0 mm 963 W/m2
11:55 16.2 °C 11.4 °C 1021.9 hPa NW 9.7 km/h 19.3 km/h 73 % 0.0 mm 863 W/m2
12:00 15.8 °C 10.6 °C 1021.9 hPa WNW 11.3 km/h 19.3 km/h 71 % 0.0 mm 868 W/m2
12:05 15.9 °C 11.1 °C 1021.9 hPa West 4.8 km/h 19.3 km/h 73 % 0.0 mm 993 W/m2
12:10 15.3 °C 9.5 °C 1021.9 hPa WNW 14.5 km/h 22.5 km/h 68 % 0.0 mm 568 W/m2
12:15 15.1 °C 9.6 °C 1022.2 hPa West 4.8 km/h 22.5 km/h 70 % 0.0 mm 439 W/m2
12:20 15.9 °C 10.0 °C 1022.2 hPa SW 12.9 km/h 17.7 km/h 68 % 0.0 mm 617 W/m2
12:25 15.6 °C 10.2 °C 1022.2 hPa WSW 6.4 km/h 22.5 km/h 70 % 0.0 mm 735 W/m2
12:30 15.7 °C 10.3 °C 1022.2 hPa West 17.7 km/h 22.5 km/h 70 % 0.0 mm 930 W/m2
12:40 16.1 °C 10.6 °C 1022.2 hPa West 4.8 km/h 24.1 km/h 70 % 0.0 mm 881 W/m2
12:45 16.2 °C 10.7 °C 1022.6 hPa WNW 8.0 km/h 19.3 km/h 70 % 0.0 mm 882 W/m2
12:50 15.9 °C 11.1 °C 1022.2 hPa WNW 9.7 km/h 20.9 km/h 73 % 0.0 mm 886 W/m2
12:55 16.3 °C 11.6 °C 1022.6 hPa WSW 14.5 km/h 20.9 km/h 74 % 0.0 mm 889 W/m2
13:00 16.3 °C 11.5 °C 1022.6 hPa WNW 4.8 km/h 24.1 km/h 73 % 0.0 mm 900 W/m2
13:05 16.2 °C 11.0 °C 1022.6 hPa SSW 12.9 km/h 24.1 km/h 71 % 0.0 mm 912 W/m2
13:10 16.2 °C 11.2 °C 1022.6 hPa West 4.8 km/h 20.9 km/h 72 % 0.0 mm 926 W/m2
13:15 16.4 °C 11.7 °C 1022.6 hPa WNW 9.7 km/h 20.9 km/h 74 % 0.0 mm 937 W/m2
13:25 16.6 °C 10.5 °C 1022.6 hPa West 12.9 km/h 22.5 km/h 67 % 0.0 mm 926 W/m2
13:30 16.3 °C 10.6 °C 1022.6 hPa WSW 6.4 km/h 22.5 km/h 69 % 0.0 mm 918 W/m2
13:35 16.2 °C 11.1 °C 1022.6 hPa WSW 9.7 km/h 19.3 km/h 72 % 0.0 mm 942 W/m2
13:40 16.2 °C 11.1 °C 1022.6 hPa SW 9.7 km/h 24.1 km/h 72 % 0.0 mm 925 W/m2
13:45 16.3 °C 11.0 °C 1022.9 hPa SW 6.4 km/h 24.1 km/h 71 % 0.0 mm 918 W/m2
13:50 16.7 °C 12.1 °C 1022.9 hPa SW 12.9 km/h 22.5 km/h 74 % 0.0 mm 926 W/m2
13:55 16.9 °C 11.6 °C 1022.9 hPa WNW 19.3 km/h 22.5 km/h 71 % 0.0 mm 993 W/m2
14:00 16.4 °C 12.0 °C 1022.9 hPa West 6.4 km/h 22.5 km/h 75 % 0.0 mm 995 W/m2
14:05 16.5 °C 11.8 °C 1022.9 hPa West 9.7 km/h 22.5 km/h 74 % 0.0 mm 234 W/m2
14:10 15.4 °C 10.6 °C 1022.9 hPa WNW 6.4 km/h 22.5 km/h 73 % 0.0 mm 181 W/m2
14:15 15.3 °C 10.7 °C 1022.9 hPa SW 6.4 km/h 20.9 km/h 74 % 0.0 mm 223 W/m2
14:20 16.2 °C 11.7 °C 1022.9 hPa WNW 8.0 km/h 22.5 km/h 75 % 0.0 mm 1011 W/m2
14:25 16.5 °C 11.4 °C 1022.9 hPa WNW 12.9 km/h 27.4 km/h 72 % 0.0 mm 1016 W/m2
14:30 16.6 °C 11.1 °C 1022.9 hPa West 14.5 km/h 27.4 km/h 70 % 0.0 mm 940 W/m2
14:35 16.6 °C 11.7 °C 1022.9 hPa WNW 6.4 km/h 22.5 km/h 73 % 0.0 mm 912 W/m2
14:40 16.7 °C 11.2 °C 1022.9 hPa NW 3.2 km/h 20.9 km/h 70 % 0.0 mm 907 W/m2
14:45 16.6 °C 10.4 °C 1022.9 hPa SW 11.3 km/h 24.1 km/h 67 % 0.0 mm 902 W/m2
14:50 16.6 °C 11.5 °C 1023.2 hPa SW 14.5 km/h 24.1 km/h 72 % 0.0 mm 898 W/m2
14:55 16.6 °C 10.2 °C 1022.9 hPa West 8.0 km/h 22.5 km/h 66 % 0.0 mm 895 W/m2
15:00 16.8 °C 11.1 °C 1023.2 hPa WSW 14.5 km/h 19.3 km/h 69 % 0.0 mm 893 W/m2
15:05 17.5 °C 11.3 °C 1023.2 hPa WSW 3.2 km/h 20.9 km/h 67 % 0.0 mm 884 W/m2
15:10 16.7 °C 10.8 °C 1023.2 hPa WSW 12.9 km/h 22.5 km/h 68 % 0.0 mm 884 W/m2
15:15 16.6 °C 11.1 °C 1023.2 hPa NW 14.5 km/h 22.5 km/h 70 % 0.0 mm 874 W/m2
15:20 16.9 °C 11.2 °C 1023.2 hPa SW 6.4 km/h 25.7 km/h 69 % 0.0 mm 875 W/m2
15:25 16.6 °C 11.3 °C 1023.2 hPa West 14.5 km/h 25.7 km/h 71 % 0.0 mm 867 W/m2
15:30 16.8 °C 11.1 °C 1023.2 hPa WSW 16.1 km/h 22.5 km/h 69 % 0.0 mm 861 W/m2
15:35 16.7 °C 11.4 °C 1023.6 hPa West 12.9 km/h 22.5 km/h 71 % 0.0 mm 853 W/m2
15:40 17.3 °C 11.8 °C 1023.2 hPa SW 11.3 km/h 22.5 km/h 70 % 0.0 mm 844 W/m2
15:45 17.2 °C 11.9 °C 1023.2 hPa WSW 9.7 km/h 22.5 km/h 71 % 0.0 mm 837 W/m2
15:50 17.2 °C 11.2 °C 1023.2 hPa West 11.3 km/h 20.9 km/h 68 % 0.0 mm 759 W/m2
16:00 16.8 °C 10.4 °C 1023.6 hPa WNW 11.3 km/h 24.1 km/h 66 % 0.0 mm 747 W/m2
16:05 16.5 °C 10.8 °C 1023.6 hPa South 8.0 km/h 24.1 km/h 69 % 0.0 mm 766 W/m2
16:10 16.9 °C 11.6 °C 1023.6 hPa WNW 4.8 km/h 22.5 km/h 71 % 0.0 mm 809 W/m2
16:15 17.6 °C 11.6 °C 1023.6 hPa West 19.3 km/h 22.5 km/h 68 % 0.0 mm 809 W/m2
16:20 17.0 °C 11.3 °C 1023.6 hPa WSW 8.0 km/h 22.5 km/h 69 % 0.0 mm 821 W/m2
16:25 17.1 °C 11.1 °C 1023.6 hPa West 9.7 km/h 20.9 km/h 68 % 0.0 mm 765 W/m2
16:30 16.5 °C 10.3 °C 1023.6 hPa WSW 16.1 km/h 20.9 km/h 67 % 0.0 mm 742 W/m2
16:35 16.7 °C 10.8 °C 1023.6 hPa West 3.2 km/h 22.5 km/h 68 % 0.0 mm 756 W/m2
16:40 16.9 °C 11.4 °C 1023.6 hPa WSW 17.7 km/h 22.5 km/h 70 % 0.0 mm 679 W/m2
16:45 16.8 °C 11.1 °C 1023.6 hPa West 9.7 km/h 20.9 km/h 69 % 0.0 mm 710 W/m2
16:50 16.4 °C 11.0 °C 1023.6 hPa WSW 4.8 km/h 25.7 km/h 70 % 0.0 mm 694 W/m2
16:55 16.2 °C 10.7 °C 1023.6 hPa SSW 11.3 km/h 25.7 km/h 70 % 0.0 mm 183 W/m2
17:00 16.2 °C 10.7 °C 1023.6 hPa WSW 8.0 km/h 24.1 km/h 70 % 0.0 mm 664 W/m2
17:05 16.6 °C 12.1 °C 1023.6 hPa WSW 16.1 km/h 24.1 km/h 75 % 0.0 mm 677 W/m2
17:10 16.3 °C 11.5 °C 1023.6 hPa West 9.7 km/h 22.5 km/h 73 % 0.0 mm 680 W/m2
17:15 16.7 °C 12.1 °C 1023.9 hPa WSW 14.5 km/h 22.5 km/h 74 % 0.0 mm 670 W/m2
17:20 16.7 °C 11.4 °C 1023.9 hPa NW 4.8 km/h 20.9 km/h 71 % 0.0 mm 647 W/m2
17:25 16.7 °C 11.4 °C 1023.9 hPa NW 11.3 km/h 22.5 km/h 71 % 0.0 mm 650 W/m2
17:30 16.8 °C 11.5 °C 1023.9 hPa West 9.7 km/h 24.1 km/h 71 % 0.0 mm 633 W/m2
17:35 16.4 °C 10.3 °C 1023.9 hPa West 9.7 km/h 24.1 km/h 67 % 0.0 mm 621 W/m2
17:40 16.4 °C 10.9 °C 1023.9 hPa WNW 9.7 km/h 20.9 km/h 70 % 0.0 mm 615 W/m2
17:45 16.5 °C 11.0 °C 1023.9 hPa WNW 8.0 km/h 19.3 km/h 70 % 0.0 mm 589 W/m2
17:50 16.4 °C 10.7 °C 1023.9 hPa West 12.9 km/h 24.1 km/h 69 % 0.0 mm 580 W/m2
17:55 16.3 °C 10.1 °C 1023.9 hPa West 14.5 km/h 24.1 km/h 67 % 0.0 mm 561 W/m2
18:00 16.1 °C 10.6 °C 1023.9 hPa West 20.9 km/h 20.9 km/h 70 % 0.0 mm 534 W/m2
18:05 16.3 °C 11.3 °C 1023.9 hPa SW 6.4 km/h 20.9 km/h 72 % 0.0 mm 489 W/m2
18:10 16.2 °C 10.5 °C 1023.9 hPa WSW 6.4 km/h 22.5 km/h 69 % 0.0 mm 524 W/m2
18:15 16.3 °C 11.0 °C 1023.9 hPa WNW 4.8 km/h 22.5 km/h 71 % 0.0 mm 513 W/m2
18:20 16.5 °C 11.0 °C 1023.9 hPa SW 8.0 km/h 17.7 km/h 70 % 0.0 mm 497 W/m2
18:25 16.4 °C 11.1 °C 1023.9 hPa West 20.9 km/h 20.9 km/h 71 % 0.0 mm 480 W/m2
18:30 15.9 °C 10.4 °C 1023.9 hPa WNW 6.4 km/h 20.9 km/h 70 % 0.0 mm 464 W/m2
18:35 16.0 °C 11.2 °C 1023.9 hPa WNW 6.4 km/h 20.9 km/h 73 % 0.0 mm 446 W/m2
18:40 16.1 °C 10.8 °C 1023.9 hPa WNW 6.4 km/h 16.1 km/h 71 % 0.0 mm 439 W/m2
18:45 15.8 °C 10.7 °C 1023.9 hPa WNW 6.4 km/h 17.7 km/h 72 % 0.0 mm 424 W/m2
18:50 15.8 °C 10.7 °C 1023.9 hPa West 8.0 km/h 17.7 km/h 72 % 0.0 mm 383 W/m2
18:55 15.8 °C 10.9 °C 1023.9 hPa WNW 6.4 km/h 22.5 km/h 73 % 0.0 mm 385 W/m2
19:00 15.8 °C 10.7 °C 1023.9 hPa WSW 4.8 km/h 22.5 km/h 72 % 0.0 mm 292 W/m2
19:05 15.4 °C 10.4 °C 1023.9 hPa WSW 14.5 km/h 16.1 km/h 72 % 0.0 mm 348 W/m2
19:10 15.5 °C 10.9 °C 1023.9 hPa West 12.9 km/h 17.7 km/h 74 % 0.0 mm 336 W/m2
19:15 15.7 °C 10.8 °C 1023.9 hPa WSW 3.2 km/h 17.7 km/h 73 % 0.0 mm 290 W/m2
19:20 15.8 °C 11.2 °C 1023.9 hPa NNW 4.8 km/h 16.1 km/h 74 % 0.0 mm 299 W/m2
19:25 15.6 °C 10.3 °C 1023.9 hPa WSW 4.8 km/h 19.3 km/h 71 % 0.0 mm 292 W/m2
19:30 15.4 °C 10.4 °C 1023.9 hPa WSW 4.8 km/h 19.3 km/h 72 % 0.0 mm 287 W/m2
19:35 15.3 °C 10.5 °C 1023.9 hPa West 6.4 km/h 19.3 km/h 73 % 0.0 mm 272 W/m2
19:40 15.3 °C 10.3 °C 1023.9 hPa WSW 3.2 km/h 20.9 km/h 72 % 0.0 mm 253 W/m2
19:45 15.3 °C 10.5 °C 1023.9 hPa WSW 14.5 km/h 20.9 km/h 73 % 0.0 mm 229 W/m2
19:55 15.1 °C 10.3 °C 1024.3 hPa SW 6.4 km/h 17.7 km/h 73 % 0.0 mm 146 W/m2
20:05 14.8 °C 10.0 °C 1024.3 hPa SSW 4.8 km/h 14.5 km/h 73 % 0.0 mm 109 W/m2
20:10 14.7 °C 10.1 °C 1024.3 hPa SW 4.8 km/h 14.5 km/h 74 % 0.0 mm 109 W/m2
20:15 14.6 °C 10.0 °C 1024.3 hPa WSW 11.3 km/h 14.5 km/h 74 % 0.0 mm 97 W/m2
20:20 14.4 °C 9.9 °C 1024.3 hPa WSW 3.2 km/h 14.5 km/h 74 % 0.0 mm 84 W/m2
20:25 14.3 °C 10.0 °C 1024.3 hPa WSW 3.2 km/h 12.9 km/h 75 % 0.0 mm 70 W/m2
20:30 14.2 °C 10.0 °C 1024.3 hPa West 9.7 km/h 12.9 km/h 76 % 0.0 mm 54 W/m2
20:35 14.2 °C 9.9 °C 1024.3 hPa West 9.7 km/h 12.9 km/h 75 % 0.0 mm 49 W/m2
20:40 14.2 °C 10.0 °C 1024.3 hPa WSW 4.8 km/h 12.9 km/h 76 % 0.0 mm 44 W/m2
20:45 14.1 °C 9.7 °C 1024.3 hPa WSW 6.4 km/h 12.9 km/h 75 % 0.0 mm 39 W/m2
20:50 13.9 °C 9.8 °C 1024.3 hPa WSW 8.0 km/h 11.3 km/h 76 % 0.0 mm 35 W/m2
20:55 13.8 °C 9.9 °C 1024.3 hPa West 6.4 km/h 8.0 km/h 77 % 0.0 mm 40 W/m2
21:00 13.8 °C 9.9 °C 1024.3 hPa Calm   8.0 km/h 77 % 0.0 mm 42 W/m2
21:05 13.9 °C 10.0 °C 1024.3 hPa WSW 9.7 km/h 9.7 km/h 77 % 0.0 mm 35 W/m2
21:10 13.9 °C 9.8 °C 1024.3 hPa WSW 9.7 km/h 11.3 km/h 76 % 0.0 mm 32 W/m2
21:15 13.9 °C 10.0 °C 1024.3 hPa WSW 6.4 km/h 11.3 km/h 77 % 0.0 mm 26 W/m2
21:20 13.9 °C 10.0 °C 1024.3 hPa West 1.6 km/h 14.5 km/h 77 % 0.0 mm 18 W/m2
21:25 13.9 °C 9.9 °C 1024.3 hPa WSW 4.8 km/h 14.5 km/h 77 % 0.0 mm 12 W/m2
21:30 13.8 °C 10.0 °C 1024.3 hPa WSW 1.6 km/h 9.7 km/h 78 % 0.0 mm 9 W/m2
21:35 13.6 °C 9.7 °C 1024.3 hPa SW 4.8 km/h 9.7 km/h 77 % 0.0 mm 7 W/m2
21:40 13.4 °C 9.7 °C 1024.6 hPa SW 4.8 km/h 11.3 km/h 78 % 0.0 mm 5 W/m2
21:45 13.3 °C 9.6 °C 1024.6 hPa SW 3.2 km/h 11.3 km/h 78 % 0.0 mm 0 W/m2
21:50 13.2 °C 9.7 °C 1024.6 hPa SSW 8.0 km/h 11.3 km/h 79 % 0.0 mm 0 W/m2
21:55 13.3 °C 9.5 °C 1024.3 hPa WSW 1.6 km/h 11.3 km/h 78 % 0.0 mm 0 W/m2
22:00 13.1 °C 9.5 °C 1024.6 hPa Calm   9.7 km/h 79 % 0.0 mm 0 W/m2
22:05 12.8 °C 9.3 °C 1024.6 hPa WSW 3.2 km/h 6.4 km/h 79 % 0.0 mm 0 W/m2
22:10 12.8 °C 9.4 °C 1024.6 hPa Calm   6.4 km/h 80 % 0.0 mm 0 W/m2
22:15 12.6 °C 9.4 °C 1024.6 hPa SW 1.6 km/h 8.0 km/h 81 % 0.0 mm 0 W/m2
22:20 12.4 °C 9.4 °C 1024.6 hPa Calm   8.0 km/h 82 % 0.0 mm 0 W/m2
22:25 12.3 °C 9.5 °C 1024.6 hPa Calm   6.4 km/h 83 % 0.0 mm 0 W/m2
22:30 12.1 °C 9.4 °C 1024.6 hPa SSW 3.2 km/h 6.4 km/h 84 % 0.0 mm 0 W/m2
22:35 11.9 °C 9.5 °C 1024.6 hPa Calm   3.2 km/h 85 % 0.0 mm 0 W/m2
22:40 12.2 °C 9.7 °C 1024.6 hPa Calm   3.2 km/h 85 % 0.0 mm 0 W/m2
22:45 12.1 °C 9.5 °C 1024.9 hPa SW 1.6 km/h 4.8 km/h 84 % 0.0 mm 0 W/m2
22:50 11.9 °C 9.4 °C 1024.9 hPa Calm   6.4 km/h 85 % 0.0 mm 0 W/m2
22:55 12.0 °C 9.7 °C 1024.9 hPa Calm   6.4 km/h 86 % 0.0 mm 0 W/m2
23:00 12.1 °C 9.7 °C 1024.9 hPa SSW 3.2 km/h 8.0 km/h 85 % 0.0 mm 0 W/m2
23:05 12.1 °C 9.7 °C 1024.9 hPa Calm   8.0 km/h 85 % 0.0 mm 0 W/m2
23:10 12.1 °C 9.6 °C 1024.9 hPa Calm   6.4 km/h 85 % 0.0 mm 0 W/m2
23:15 11.9 °C 9.5 °C 1024.9 hPa SSE 1.6 km/h 4.8 km/h 85 % 0.0 mm 0 W/m2
23:20 11.8 °C 9.5 °C 1024.9 hPa Calm   4.8 km/h 86 % 0.0 mm 0 W/m2
23:25 11.3 °C 9.1 °C 1024.9 hPa Calm   3.2 km/h 86 % 0.0 mm 0 W/m2
23:30 11.0 °C 9.1 °C 1024.9 hPa Calm   1.6 km/h 88 % 0.0 mm 0 W/m2
23:35 10.7 °C 8.8 °C 1024.9 hPa Calm   1.6 km/h 88 % 0.0 mm 0 W/m2
23:40 10.6 °C 8.8 °C 1024.9 hPa SSE 1.6 km/h 1.6 km/h 89 % 0.0 mm 0 W/m2
23:45 10.3 °C 8.8 °C 1024.9 hPa Calm   1.6 km/h 90 % 0.0 mm 0 W/m2
23:50 10.2 °C 8.6 °C 1024.9 hPa Calm     90 % 0.0 mm 0 W/m2
23:55 10.1 °C 8.7 °C 1024.9 hPa Calm     91 % 0.0 mm 0 W/m2
Avec l'autorisation de Weather Underground - 1.75 mb